Latest Weather Observations for Hay Point

IDQ60801

Issued at 11:05 pm EST Monday 1 September 2014 (issued every 30 minutes, with the page automatically refreshed every 10 minutes)

About weather observations | Map of weather stations | Latest weather observations for QLD | Other Formats
Station Details ID: 033317 Name: HAY POINT Lat: -21.29 Lon: 149.30 Height: 7.0 m
Data from the previous 72 hours. | See also: Recent months for locations in Queensland
Date/Time
EST
Temp
°C
App
Temp
°C
Dew
Point
Rel
Hum
%
Delta-T
°C
Wind Press
QNH
hPa
Press
MSL
hPa
Rain
since 9 am
mm
Dir
 
Spd
km/h
Gust
km/h
Spd
kts
Gust
kts
01/11:00pm - - - - - WSW 6 7 3 4 - - -
01/10:30pm - - - - - WSW 7 9 4 5 - - -
01/10:00pm - - - - - WSW 7 11 4 6 - - -
01/09:30pm - - - - - WSW 7 9 4 5 - - -
01/09:00pm - - - - - WSW 7 7 4 4 - - -
01/08:30pm - - - - - WSW 7 7 4 4 - - -
01/08:00pm - - - - - NE 9 13 5 7 - - -
01/07:30pm - - - - - NE 9 13 5 7 - - -
01/07:00pm - - - - - NNE 11 13 6 7 - - -
01/06:30pm - - - - - NE 13 15 7 8 - - -
01/06:00pm - - - - - ENE 13 17 7 9 - - -
01/05:30pm - - - - - ENE 13 17 7 9 - - -
01/05:00pm - - - - - ENE 15 19 8 10 - - -
01/04:30pm - - - - - ENE 15 19 8 10 - - -
01/04:00pm - - - - - ENE 17 17 9 9 - - -
01/03:30pm - - - - - ENE 15 17 8 9 - - -
01/03:00pm - - - - - E 11 13 6 7 - - -
01/02:30pm - - - - - E 11 15 6 8 - - -
01/02:00pm - - - - - E 9 11 5 6 - - -
01/01:30pm - - - - - E 9 13 5 7 - - -
01/01:00pm - - - - - E 9 11 5 6 - - -
01/12:30pm - - - - - ESE 9 13 5 7 - - -
01/12:00pm - - - - - SE 9 13 5 7 - - -
01/11:30am - - - - - SSE 11 13 6 7 - - -
01/11:00am - - - - - SE 11 13 6 7 - - -
01/10:30am - - - - - SSE 9 11 5 6 - - -
01/10:00am - - - - - SW 7 9 4 5 - - -
01/09:30am - - - - - SW 7 9 4 5 - - -
01/09:00am - - - - - SW 6 9 3 5 - - -
01/08:30am - - - - - SW 7 9 4 5 - - -
01/08:00am - - - - - SW 7 9 4 5 - - -
01/07:30am - - - - - WSW 9 11 5 6 - - -
01/07:00am - - - - - W 11 13 6 7 - - -
01/06:30am - - - - - WSW 7 11 4 6 - - -
01/06:00am - - - - - WSW 7 9 4 5 - - -
01/05:30am - - - - - W 11 13 6 7 - - -
01/05:00am - - - - - W 9 13 5 7 - - -
01/04:30am - - - - - NW 6 7 3 4 - - -
01/04:00am - - - - - WNW 2 7 1 4 - - -
01/03:30am - - - - - WNW 7 9 4 5 - - -
01/03:00am - - - - - W 11 13 6 7 - - -
01/02:30am - - - - - WSW 11 15 6 8 - - -
01/02:00am - - - - - W 13 17 7 9 - - -
01/01:30am - - - - - WSW 11 13 6 7 - - -
01/01:00am - - - - - WSW 11 15 6 8 - - -
01/12:30am - - - - - W 11 13 6 7 - - -
01/12:00am - - - - - WSW 11 13 6 7 - - -
 
Date/Time
EST
Temp
°C
App
Temp
°C
Dew
Point
Rel
Hum
%
Delta-T
°C
Wind Press
QNH
hPa
Press
MSL
hPa
Rain
since 9 am
mm
Dir
 
Spd
km/h
Gust
km/h
Spd
kts
Gust
kts
31/11:30pm - - - - - WSW 9 11 5 6 - - -
31/11:00pm - - - - - W 9 13 5 7 - - -
31/10:30pm - - - - - WSW 9 13 5 7 - - -
31/10:00pm - - - - - W 7 9 4 5 - - -
31/09:30pm - - - - - W 9 13 5 7 - - -
31/09:00pm - - - - - NW 9 11 5 6 - - -
31/08:30pm - - - - - NNW 7 11 4 6 - - -
31/08:00pm - - - - - NNE 11 13 6 7 - - -
31/07:30pm - - - - - N 11 13 6 7 - - -
31/07:00pm - - - - - NNE 13 15 7 8 - - -
31/06:30pm - - - - - NNE 15 17 8 9 - - -
31/06:00pm - - - - - NNE 15 17 8 9 - - -
31/05:30pm - - - - - NE 15 19 8 10 - - -
31/05:00pm - - - - - NE 17 20 9 11 - - -
31/04:30pm - - - - - NE 20 22 11 12 - - -
31/04:00pm - - - - - ENE 17 19 9 10 - - -
31/03:30pm - - - - - ENE 19 22 10 12 - - -
31/03:00pm - - - - - ENE 17 19 9 10 - - -
31/02:30pm - - - - - ENE 19 22 10 12 - - -
31/02:00pm - - - - - ENE 19 22 10 12 - - -
31/01:30pm - - - - - ENE 17 19 9 10 - - -
31/01:00pm - - - - - E 17 19 9 10 - - -
31/12:30pm - - - - - E 17 19 9 10 - - -
31/12:00pm - - - - - ESE 15 17 8 9 - - -
31/11:30am - - - - - ESE 13 15 7 8 - - -
31/11:00am - - - - - SE 11 15 6 8 - - -
31/10:30am - - - - - SE 11 15 6 8 - - -
31/10:00am - - - - - SE 9 11 5 6 - - -
31/09:30am - - - - - SSE 9 11 5 6 - - -
31/09:00am - - - - - SW 9 11 5 6 - - -
31/08:30am - - - - - SW 7 7 4 4 - - -
31/08:00am - - - - - SW 7 9 4 5 - - -
31/07:30am - - - - - CALM 0 0 0 0 - - -
31/07:00am - - - - - WNW 7 9 4 5 - - -
31/06:30am - - - - - WSW 9 11 5 6 - - -
31/06:00am - - - - - SW 9 11 5 6 - - -
31/05:30am - - - - - SW 6 7 3 4 - - -
31/05:00am - - - - - SW 9 11 5 6 - - -
31/04:30am - - - - - W 9 13 5 7 - - -
31/04:00am - - - - - WSW 13 15 7 8 - - -
31/03:30am - - - - - WSW 11 13 6 7 - - -
31/03:00am - - - - - WSW 13 15 7 8 - - -
31/02:30am - - - - - W 9 11 5 6 - - -
31/02:00am - - - - - WSW 11 15 6 8 - - -
31/01:30am - - - - - SW 13 15 7 8 - - -
31/01:00am - - - - - SW 9 11 5 6 - - -
31/12:30am - - - - - WSW 11 13 6 7 - - -
31/12:00am - - - - - WSW 9 11 5 6 - - -
 
Date/Time
EST
Temp
°C
App
Temp
°C
Dew
Point
Rel
Hum
%
Delta-T
°C
Wind Press
QNH
hPa
Press
MSL
hPa
Rain
since 9 am
mm
Dir
 
Spd
km/h
Gust
km/h
Spd
kts
Gust
kts
30/11:30pm - - - - - WSW 11 13 6 7 - - -
30/11:00pm - - - - - WSW 11 13 6 7 - - -
30/10:30pm - - - - - W 11 15 6 8 - - -
30/10:00pm - - - - - W 9 11 5 6 - - -
30/09:30pm - - - - - W 9 9 5 5 - - -
30/09:00pm - - - - - N 11 13 6 7 - - -
30/08:30pm - - - - - NNE 13 15 7 8 - - -
30/08:00pm - - - - - NNE 15 19 8 10 - - -
30/07:30pm - - - - - NE 17 20 9 11 - - -
30/07:00pm - - - - - NE 19 22 10 12 - - -
30/06:30pm - - - - - NE 20 24 11 13 - - -
30/06:00pm - - - - - ENE 22 26 12 14 - - -
30/05:30pm - - - - - ENE 22 26 12 14 - - -
30/05:00pm - - - - - ENE 24 26 13 14 - - -
30/04:30pm - - - - - ENE 24 26 13 14 - - -
30/04:00pm - - - - - E 24 26 13 14 - - -
30/03:30pm - - - - - E 22 26 12 14 - - -
30/03:00pm - - - - - E 20 24 11 13 - - -
30/02:30pm - - - - - E 22 24 12 13 - - -
30/02:00pm - - - - - ESE 17 22 9 12 - - -
30/01:30pm - - - - - SE 19 24 10 13 - - -
30/01:00pm - - - - - SSE 20 26 11 14 - - -
30/12:30pm - - - - - SSE 20 24 11 13 - - -
30/12:00pm - - - - - SSE 22 26 12 14 - - -
30/11:30am - - - - - SSE 28 30 15 16 - - -
30/11:00am - - - - - SSE 26 30 14 16 - - -
30/10:30am - - - - - S 20 26 11 14 - - -
30/10:00am - - - - - S 20 26 11 14 - - -
30/09:30am - - - - - S 19 26 10 14 - - -
30/09:00am - - - - - S 19 26 10 14 - - -
30/08:30am - - - - - SSW 20 28 11 15 - - -
30/08:00am - - - - - SSW 20 26 11 14 - - -
30/07:30am - - - - - SW 17 19 9 10 - - -
30/07:00am - - - - - SW 15 19 8 10 - - -
30/06:30am - - - - - SW 15 17 8 9 - - -
30/06:00am - - - - - SW 15 17 8 9 - - -
30/05:30am - - - - - SW 13 15 7 8 - - -
30/05:00am - - - - - SW 13 13 7 7 - - -
30/04:30am - - - - - SW 11 13 6 7 - - -
30/04:00am - - - - - SW 13 15 7 8 - - -
30/03:30am - - - - - SW 9 11 5 6 - - -
30/03:00am - - - - - SW 13 15 7 8 - - -
30/02:30am - - - - - SW 13 17 7 9 - - -
30/02:00am - - - - - WSW 11 15 6 8 - - -
30/01:30am - - - - - W 11 13 6 7 - - -
30/01:00am - - - - - WSW 11 13 6 7 - - -
30/12:30am - - - - - SW 13 15 7 8 - - -
30/12:00am - - - - - SW 9 11 5 6 - - -
 
Date/Time
EST
Temp
°C
App
Temp
°C
Dew
Point
Rel
Hum
%
Delta-T
°C
Wind Press
QNH
hPa
Press
MSL
hPa
Rain
since 9 am
mm
Dir
 
Spd
km/h
Gust
km/h
Spd
kts
Gust
kts
29/11:30pm - - - - - SW 11 13 6 7 - - -

Other Formats:

Comma delimited format used in spreadsheet applications
http://www.bom.gov.au/fwo/IDQ60801/IDQ60801.99367.axf

JavaScript Object Notation format (JSON) in row-major order
http://www.bom.gov.au/fwo/IDQ60801/IDQ60801.99367.json